createdAt,value
2017-02-26T00:06:14.282Z,8.76
2017-02-26T00:16:14.286Z,8.75
2017-02-26T00:26:14.200Z,8.69
2017-02-26T00:36:14.286Z,8.71
2017-02-26T00:46:14.345Z,8.65
2017-02-26T00:56:14.297Z,8.57
2017-02-26T01:06:14.239Z,8.51
2017-02-26T01:16:14.315Z,8.57
2017-02-26T01:26:14.283Z,8.53
2017-02-26T01:36:14.355Z,8.62
2017-02-26T01:46:14.267Z,8.36
2017-02-26T01:56:14.275Z,8.25
2017-02-26T02:06:14.318Z,8.1
2017-02-26T02:16:14.370Z,8.21
2017-02-26T02:26:14.360Z,8.2
2017-02-26T02:36:14.412Z,8.14
2017-02-26T02:46:14.382Z,8.22
2017-02-26T02:56:14.323Z,8.11
2017-02-26T03:06:14.338Z,8.22
2017-02-26T03:16:14.358Z,8.04
2017-02-26T03:26:14.400Z,8.15
2017-02-26T03:36:14.775Z,8.07
2017-02-26T03:46:14.360Z,8.2
2017-02-26T03:56:14.367Z,8.07
2017-02-26T04:06:14.462Z,8.1
2017-02-26T04:16:14.399Z,8.12
2017-02-26T04:26:14.478Z,8.2
2017-02-26T04:36:14.427Z,8.12
2017-02-26T04:46:14.431Z,8.08
2017-02-26T04:56:14.527Z,8.12
2017-02-26T05:06:14.460Z,8.07
2017-02-26T05:16:14.424Z,8.1
2017-02-26T05:26:14.455Z,8.08
2017-02-26T05:36:14.495Z,8.08
2017-02-26T05:46:14.543Z,8.15
2017-02-26T05:56:14.503Z,8.21
2017-02-26T06:06:14.477Z,8.26
2017-02-26T06:16:14.493Z,8.21
2017-02-26T06:26:14.506Z,8.18
2017-02-26T06:36:14.530Z,8.14
2017-02-26T06:46:14.528Z,7.96
2017-02-26T06:56:14.518Z,8.1
2017-02-26T07:06:14.563Z,8.22
2017-02-26T07:16:14.568Z,8.63
2017-02-26T07:26:14.562Z,8.86
2017-02-26T07:36:14.606Z,8.88
2017-02-26T07:46:14.586Z,9.1
2017-02-26T07:56:14.587Z,9.42
2017-02-26T08:06:14.587Z,9.58
2017-02-26T08:16:14.670Z,9.75
2017-02-26T08:26:14.676Z,9.6
2017-02-26T08:36:14.634Z,9.7
2017-02-26T08:46:14.621Z,10.01
2017-02-26T08:56:14.723Z,10.4
2017-02-26T09:06:14.689Z,10.42
2017-02-26T09:16:14.763Z,10.58
2017-02-26T09:26:14.653Z,10.51
2017-02-26T09:36:14.666Z,10.42
2017-02-26T09:46:14.720Z,10.51
2017-02-26T09:56:14.797Z,10.3
2017-02-26T10:06:14.855Z,10.28
2017-02-26T10:16:14.839Z,10.76
2017-02-26T10:26:14.735Z,11.31
2017-02-26T10:36:14.735Z,11.1
2017-02-26T10:46:14.810Z,10.73
2017-02-26T10:56:14.759Z,11.02
2017-02-26T11:06:14.845Z,11.13
2017-02-26T11:16:14.839Z,10.62
2017-02-26T11:26:14.885Z,10.77
2017-02-26T11:36:14.825Z,10.81
2017-02-26T11:46:14.877Z,10.53
2017-02-26T11:56:14.821Z,10.56
2017-02-26T12:06:14.997Z,10.32
2017-02-26T12:16:14.862Z,10.36
2017-02-26T12:26:14.926Z,10.78
2017-02-26T12:36:14.922Z,11.25
2017-02-26T12:46:14.931Z,11.2
2017-02-26T12:56:14.909Z,10.88
2017-02-26T13:06:14.841Z,10.99
2017-02-26T13:16:14.872Z,11.29
2017-02-26T13:26:14.875Z,11.41
2017-02-26T13:36:14.881Z,11.5
2017-02-26T13:46:14.885Z,11.72
2017-02-26T13:56:14.966Z,11.44
2017-02-26T14:06:14.933Z,11.36
2017-02-26T14:16:14.922Z,11.5
2017-02-26T14:26:14.938Z,11.56
2017-02-26T14:36:15.020Z,11.83
2017-02-26T14:46:14.991Z,11.97
2017-02-26T14:56:14.984Z,12.08
2017-02-26T15:06:15.047Z,12.42
2017-02-26T15:16:15.044Z,12.29
2017-02-26T15:26:16.472Z,12.13
2017-02-26T15:36:15.027Z,11.99
2017-02-26T15:46:15.002Z,11.99
2017-02-26T15:56:15.042Z,11.72
2017-02-26T16:06:15.152Z,11.46
2017-02-26T16:16:15.098Z,11.11
2017-02-26T16:26:15.084Z,10.96
2017-02-26T16:36:15.670Z,10.91
2017-02-26T16:46:15.916Z,10.74
2017-02-26T16:56:16.424Z,10.71
2017-02-26T17:06:15.065Z,10.44
2017-02-26T17:16:21.574Z,10.36
2017-02-26T17:26:15.098Z,10.14
2017-02-26T17:36:15.136Z,10.25
2017-02-26T17:46:15.145Z,10.14
2017-02-26T17:56:15.156Z,10.1
2017-02-26T18:06:16.427Z,10.07
2017-02-26T18:16:17.945Z,10.07
2017-02-26T18:26:15.139Z,10.15
2017-02-26T18:36:15.253Z,10.25
2017-02-26T18:46:15.251Z,10.15
2017-02-26T18:56:15.295Z,10.37
2017-02-26T19:06:15.206Z,10.37
2017-02-26T19:16:15.232Z,10.53
2017-02-26T19:26:15.285Z,10.53
2017-02-26T19:36:15.947Z,10.7
2017-02-26T19:46:15.283Z,10.65
2017-02-26T19:56:15.275Z,10.78
2017-02-26T20:06:16.022Z,10.84
